Time;durP1;ratioP1;P1;durP2;ratioP2;P2;SDS_P1;SDS_P2;PMS_P1;PMS_P2;Temp;Humidity;BMP_temperature;BMP_pressure;BME280_temperature;BME280_humidity;BME280_pressure;Samples;Min_cycle;Max_cycle;Signal;HPM_P1;HPM_P2
2023/10/16 00:01:11;;;;;;;5.00;2.80;;;5.80;99.90;;;;;;5052252;28;20021;-70
2023/10/16 00:03:38;;;;;;;5.47;2.25;;;5.70;99.90;;;;;;5049572;28;20067;-70
2023/10/16 00:06:05;;;;;;;7.88;2.65;;;5.70;99.90;;;;;;5050432;28;20515;-70
2023/10/16 00:08:33;;;;;;;9.52;3.25;;;5.60;99.90;;;;;;5049568;28;20025;-70
2023/10/16 00:11:01;;;;;;;10.10;2.63;;;5.60;99.90;;;;;;5041174;28;20049;-70
2023/10/16 00:13:27;;;;;;;7.97;3.10;;;5.60;99.90;;;;;;5050348;28;20040;-70
2023/10/16 00:15:57;;;;;;;6.05;2.90;;;5.60;99.90;;;;;;5050352;28;20021;-70
2023/10/16 00:18:24;;;;;;;5.93;2.55;;;5.60;99.90;;;;;;5047519;28;20096;-70
2023/10/16 00:20:51;;;;;;;5.93;2.67;;;5.50;99.90;;;;;;5049520;28;20445;-70
2023/10/16 00:23:17;;;;;;;5.55;3.00;;;5.50;99.90;;;;;;5048044;28;20059;-70
2023/10/16 00:25:44;;;;;;;8.45;3.50;;;5.50;99.90;;;;;;5041672;28;20033;-70
2023/10/16 00:28:10;;;;;;;7.75;3.33;;;5.50;99.90;;;;;;5047363;28;20108;-70
2023/10/16 00:30:40;;;;;;;10.32;3.08;;;5.50;99.90;;;;;;5049520;28;20171;-70
2023/10/16 00:33:13;;;;;;;6.75;3.13;;;5.50;99.90;;;;;;5049216;28;20029;-70
2023/10/16 00:35:38;;;;;;;7.75;3.63;;;5.50;99.90;;;;;;5031701;28;20140;-70
2023/10/16 00:38:08;;;;;;;10.13;3.38;;;5.50;99.90;;;;;;5047547;28;20726;-70
2023/10/16 00:40:33;;;;;;;8.00;3.42;;;5.50;99.90;;;;;;5049157;28;20457;-70
2023/10/16 00:43:11;;;;;;;10.05;3.95;;;5.50;99.90;;;;;;5049984;28;20025;-70
2023/10/16 00:45:47;;;;;;;5.97;3.35;;;5.50;99.90;;;;;;5050676;28;20393;-70
2023/10/16 00:48:21;;;;;;;9.77;3.28;;;5.50;99.90;;;;;;5046610;28;20094;-70
2023/10/16 00:50:48;;;;;;;7.88;4.05;;;5.50;99.90;;;;;;5048180;28;20053;-70
2023/10/16 00:53:18;;;;;;;6.55;3.10;;;5.50;99.90;;;;;;5047135;28;20021;-70
2023/10/16 00:55:44;;;;;;;6.35;3.45;;;5.50;99.90;;;;;;5047917;28;20036;-69
2023/10/16 00:58:10;;;;;;;13.25;3.83;;;5.50;99.90;;;;;;5047798;28;20549;-70
2023/10/16 01:00:37;;;;;;;7.43;3.63;;;5.50;99.90;;;;;;5047315;28;20074;-70
2023/10/16 01:03:04;;;;;;;8.80;3.50;;;5.60;99.90;;;;;;5050922;28;20025;-70
2023/10/16 01:05:33;;;;;;;7.38;4.20;;;5.60;99.90;;;;;;5050077;28;20119;-70
2023/10/16 01:08:00;;;;;;;6.53;3.88;;;5.60;99.90;;;;;;5049920;28;20469;-70
2023/10/16 01:10:27;;;;;;;7.85;3.92;;;5.70;99.90;;;;;;5046304;28;20446;-70
2023/10/16 01:12:55;;;;;;;6.53;3.75;;;5.80;99.90;;;;;;5049856;28;20052;-70
2023/10/16 01:15:22;;;;;;;5.55;3.30;;;5.80;99.90;;;;;;5046433;28;20504;-70
2023/10/16 01:17:47;;;;;;;7.88;4.10;;;5.80;99.90;;;;;;5049895;28;20033;-70
2023/10/16 01:20:18;;;;;;;8.93;3.97;;;5.90;99.90;;;;;;5045365;28;20175;-70
2023/10/16 01:22:44;;;;;;;12.88;4.63;;;5.90;99.90;;;;;;5045835;28;20025;-70
2023/10/16 01:25:10;;;;;;;10.32;4.03;;;5.90;99.90;;;;;;5045652;28;20104;-70
2023/10/16 01:27:38;;;;;;;8.40;4.10;;;5.90;99.90;;;;;;5046578;28;20111;-70
2023/10/16 01:30:07;;;;;;;10.07;4.15;;;5.90;99.90;;;;;;5038966;28;20087;-70
2023/10/16 01:32:33;;;;;;;9.18;3.83;;;5.90;99.90;;;;;;5046966;28;20614;-70
2023/10/16 01:35:00;;;;;;;7.40;4.38;;;5.90;99.90;;;;;;5049505;28;20053;-70
2023/10/16 01:37:30;;;;;;;10.23;3.95;;;5.80;99.90;;;;;;5050149;28;20021;-70
2023/10/16 01:40:13;;;;;;;10.02;3.63;;;5.80;99.90;;;;;;5048281;28;20032;-70
2023/10/16 01:42:38;;;;;;;10.02;2.97;;;5.80;99.90;;;;;;5045144;28;20029;-70
2023/10/16 01:45:04;;;;;;;9.15;3.30;;;5.80;99.90;;;;;;5046399;28;20029;-70
2023/10/16 01:47:33;;;;;;;10.27;3.28;;;5.80;99.90;;;;;;5047154;28;20109;-70
2023/10/16 01:50:01;;;;;;;6.85;2.97;;;5.70;99.90;;;;;;5050412;28;20036;-70
2023/10/16 01:52:26;;;;;;;8.95;3.25;;;5.70;99.90;;;;;;5046493;28;20090;-69
2023/10/16 01:54:53;;;;;;;5.72;3.30;;;5.70;99.90;;;;;;5043307;28;20041;-70
2023/10/16 01:57:20;;;;;;;7.68;2.97;;;5.70;99.90;;;;;;5045666;28;20017;-70
2023/10/16 01:59:49;;;;;;;6.50;3.05;;;5.70;99.90;;;;;;5043814;28;20034;-70
2023/10/16 02:02:17;;;;;;;6.28;3.20;;;5.70;99.90;;;;;;5046308;28;20078;-70
2023/10/16 02:04:43;;;;;;;7.05;3.58;;;5.70;99.90;;;;;;5048738;28;20029;-70
2023/10/16 02:07:09;;;;;;;8.20;3.13;;;5.70;99.90;;;;;;5048527;28;20029;-70
2023/10/16 02:09:38;;;;;;;9.38;3.38;;;5.70;99.90;;;;;;5045112;28;20067;-70
2023/10/16 02:12:10;;;;;;;4.97;3.08;;;5.60;99.90;;;;;;5047660;28;20029;-70
2023/10/16 02:14:40;;;;;;;7.63;2.83;;;5.60;99.90;;;;;;5040266;28;20041;-70
2023/10/16 02:17:14;;;;;;;12.45;3.53;;;5.60;99.90;;;;;;5049526;28;20083;-70
2023/10/16 02:19:45;;;;;;;7.60;2.78;;;5.50;99.90;;;;;;5045348;28;20040;-70
2023/10/16 02:22:11;;;;;;;9.93;3.15;;;5.50;99.90;;;;;;5046859;28;20032;-70
2023/10/16 02:24:40;;;;;;;7.55;3.40;;;5.50;99.90;;;;;;5046967;28;20152;-69
2023/10/16 02:27:12;;;;;;;10.75;3.42;;;5.50;99.90;;;;;;5047505;28;20480;-70
2023/10/16 02:29:41;;;;;;;9.23;3.15;;;5.50;99.90;;;;;;5044487;28;20029;-70
2023/10/16 02:32:10;;;;;;;7.63;2.70;;;5.50;99.90;;;;;;5047140;28;20029;-70
2023/10/16 02:34:36;;;;;;;9.38;2.65;;;5.50;99.90;;;;;;5039473;28;20311;-70
2023/10/16 02:37:03;;;;;;;10.15;3.25;;;5.50;99.90;;;;;;5044332;28;20493;-70
2023/10/16 02:39:35;;;;;;;13.70;3.30;;;5.60;99.90;;;;;;5048015;28;20029;-70
2023/10/16 02:42:11;;;;;;;5.55;3.15;;;5.60;99.90;;;;;;5025700;28;20071;-70
2023/10/16 02:44:42;;;;;;;5.63;3.45;;;5.60;99.90;;;;;;5045661;28;20033;-70
2023/10/16 02:47:12;;;;;;;8.18;3.35;;;5.60;99.90;;;;;;5048410;28;20029;-70
2023/10/16 02:49:38;;;;;;;6.03;2.90;;;5.70;99.90;;;;;;5043683;28;20363;-69
2023/10/16 02:52:06;;;;;;;6.30;3.55;;;5.70;99.90;;;;;;5045994;28;20037;-70
2023/10/16 02:54:31;;;;;;;6.72;2.63;;;5.70;99.90;;;;;;5045819;28;20037;-70
2023/10/16 02:56:59;;;;;;;6.80;2.25;;;5.70;99.90;;;;;;5046192;28;20474;-70
2023/10/16 02:59:26;;;;;;;5.05;2.60;;;5.70;99.90;;;;;;5046016;28;20052;-70
2023/10/16 03:01:56;;;;;;;10.95;3.17;;;5.70;99.90;;;;;;5046697;28;20078;-70
2023/10/16 03:04:23;;;;;;;9.52;3.03;;;5.70;99.90;;;;;;5046183;28;20032;-70
2023/10/16 03:06:53;;;;;;;5.60;2.72;;;5.70;99.90;;;;;;5046003;28;21487;-70
2023/10/16 03:09:30;;;;;;;8.45;3.28;;;5.70;99.90;;;;;;5045534;28;20037;-70
2023/10/16 03:12:08;;;;;;;7.75;3.35;;;5.70;99.90;;;;;;5050359;28;20025;-70
2023/10/16 03:14:52;;;;;;;9.63;3.42;;;5.80;99.90;;;;;;5050093;28;20120;-70
2023/10/16 03:17:34;;;;;;;11.68;3.70;;;5.80;99.90;;;;;;5032109;28;20026;-70
2023/10/16 03:20:06;;;;;;;7.85;3.25;;;5.80;99.90;;;;;;5050078;28;20434;-70
2023/10/16 03:22:32;;;;;;;4.63;2.63;;;5.90;99.90;;;;;;5053736;28;20430;-70
2023/10/16 03:24:59;;;;;;;19.17;3.97;;;5.90;99.90;;;;;;5046903;28;20033;-70
2023/10/16 03:27:31;;;;;;;4.80;3.22;;;5.90;99.90;;;;;;5048846;28;20083;-70
2023/10/16 03:29:57;;;;;;;9.13;3.78;;;6.00;99.90;;;;;;5044678;28;20025;-70
2023/10/16 03:32:25;;;;;;;6.05;2.75;;;5.90;99.90;;;;;;5046542;28;20036;-70
2023/10/16 03:34:51;;;;;;;6.53;3.38;;;5.90;99.90;;;;;;5051993;28;20523;-70
2023/10/16 03:37:19;;;;;;;7.20;2.97;;;5.90;99.90;;;;;;5050840;28;20573;-70
2023/10/16 03:39:46;;;;;;;10.68;3.42;;;5.90;99.90;;;;;;5049238;28;20480;-70
2023/10/16 03:42:12;;;;;;;6.95;3.22;;;5.90;99.90;;;;;;5052373;28;20034;-70
2023/10/16 03:44:39;;;;;;;7.53;3.25;;;5.80;99.90;;;;;;5050773;28;20040;-70
2023/10/16 03:47:06;;;;;;;6.13;2.67;;;5.80;99.90;;;;;;5052391;28;20461;-70
2023/10/16 03:49:31;;;;;;;10.27;2.92;;;5.80;99.90;;;;;;5048420;28;20049;-70
2023/10/16 03:51:57;;;;;;;7.78;3.53;;;5.80;99.90;;;;;;5047084;28;20096;-70
2023/10/16 03:54:35;;;;;;;6.30;2.75;;;5.80;99.90;;;;;;5046918;28;20049;-70
2023/10/16 03:57:01;;;;;;;7.53;3.42;;;5.80;99.90;;;;;;5050051;28;20036;-70
2023/10/16 03:59:30;;;;;;;7.30;3.17;;;5.80;99.90;;;;;;5049126;28;20017;-70
2023/10/16 04:01:56;;;;;;;7.35;3.00;;;5.80;99.90;;;;;;5033168;28;20433;-70
2023/10/16 04:04:25;;;;;;;5.57;2.65;;;5.80;99.90;;;;;;5051067;28;20115;-70
2023/10/16 04:06:56;;;;;;;7.43;2.88;;;5.80;99.90;;;;;;5050444;28;20032;-70
2023/10/16 04:09:22;;;;;;;7.00;3.42;;;5.80;99.90;;;;;;5049470;28;20064;-70
2023/10/16 04:11:54;;;;;;;7.65;3.55;;;5.80;99.90;;;;;;5052608;28;20059;-70
2023/10/16 04:14:36;;;;;;;7.95;3.90;;;5.90;99.90;;;;;;5050958;28;20519;-70
2023/10/16 04:17:02;;;;;;;8.15;4.43;;;5.90;99.90;;;;;;5050889;28;20120;-70
2023/10/16 04:22:07;;;;;;;10.20;4.28;;;6.00;99.90;;;;;;5047478;28;20076;-70
2023/10/16 04:24:40;;;;;;;9.70;3.92;;;6.10;99.90;;;;;;5048643;28;20033;-70
2023/10/16 04:29:45;;;;;;;4.90;3.22;;;6.10;99.90;;;;;;5050887;28;20147;-70
2023/10/16 04:32:29;;;;;;;12.52;4.63;;;6.10;99.90;;;;;;5047085;28;20112;-70
2023/10/16 04:34:56;;;;;;;7.57;3.25;;;6.20;99.90;;;;;;5050279;28;20465;-71
2023/10/16 04:37:36;;;;;;;12.13;3.78;;;6.20;99.90;;;;;;5048412;28;20108;-70
2023/10/16 04:53:07;;;;;;;8.90;3.38;;;6.20;99.90;;;;;;5049548;28;20819;-70
2023/10/16 05:03:35;;;;;;;12.10;4.20;;;6.20;99.90;;;;;;5040105;28;20029;-70
2023/10/16 05:06:27;;;;;;;8.95;4.13;;;6.20;99.90;;;;;;5047850;28;20067;-70
2023/10/16 05:15:20;;;;;;;7.60;3.70;;;6.40;99.90;;;;;;5047343;28;20516;-70
2023/10/16 05:20:34;;;;;;;10.48;4.32;;;6.50;99.90;;;;;;5046316;28;20079;-70
2023/10/16 06:14:34;;;;;;;15.73;6.43;;;6.80;99.90;;;;;;5042203;28;20401;-70
2023/10/16 06:17:00;;;;;;;11.10;5.50;;;6.90;99.90;;;;;;5048887;28;20021;-70
2023/10/16 06:19:26;;;;;;;9.40;5.82;;;6.80;99.90;;;;;;5048339;28;20033;-70
2023/10/16 06:21:54;;;;;;;8.25;5.30;;;6.80;99.90;;;;;;5030959;28;20381;-70
2023/10/16 06:24:38;;;;;;;11.50;5.43;;;6.80;99.90;;;;;;5048024;28;20044;-70
2023/10/16 06:27:12;;;;;;;12.68;6.03;;;6.80;99.90;;;;;;5042817;28;20028;-70
2023/10/16 06:29:51;;;;;;;12.35;5.45;;;6.80;99.90;;;;;;5045520;28;20032;-70
2023/10/16 06:32:35;;;;;;;10.82;5.40;;;6.80;99.90;;;;;;5031257;28;20448;-70
2023/10/16 06:35:01;;;;;;;9.15;5.13;;;6.70;99.90;;;;;;5041462;28;20052;-71
2023/10/16 06:37:31;;;;;;;9.98;5.32;;;6.70;99.90;;;;;;5043528;28;20644;-70
2023/10/16 06:40:01;;;;;;;12.73;5.18;;;6.70;99.90;;;;;;5048706;28;20017;-70
2023/10/16 06:42:27;;;;;;;9.68;5.13;;;6.70;99.90;;;;;;5049862;28;20448;-70
2023/10/16 06:44:54;;;;;;;12.23;5.43;;;6.80;99.90;;;;;;5040654;28;20067;-70
2023/10/16 06:47:23;;;;;;;12.77;6.50;;;6.80;99.90;;;;;;5043339;28;20075;-70
2023/10/16 06:49:50;;;;;;;12.57;6.65;;;6.80;99.90;;;;;;5046227;28;20388;-70
2023/10/16 06:52:17;;;;;;;11.98;6.55;;;6.90;99.90;;;;;;5048507;28;20025;-70
2023/10/16 06:54:44;;;;;;;15.07;6.82;;;6.90;99.90;;;;;;5054547;28;20098;-70
2023/10/16 06:57:13;;;;;;;12.77;6.50;;;6.90;99.90;;;;;;5053912;28;20016;-70
2023/10/16 06:59:45;;;;;;;10.65;5.57;;;7.00;99.90;;;;;;5050877;28;20029;-70
2023/10/16 07:02:15;;;;;;;12.40;6.65;;;6.90;99.90;;;;;;5051991;28;20034;-70
2023/10/16 07:04:44;;;;;;;10.52;6.18;;;7.00;99.90;;;;;;5054404;28;20090;-70
2023/10/16 07:07:14;;;;;;;11.52;6.82;;;7.00;99.90;;;;;;5053170;28;20029;-70
2023/10/16 07:09:47;;;;;;;11.88;6.95;;;7.00;99.90;;;;;;5050988;28;20037;-70
2023/10/16 07:12:22;;;;;;;12.68;7.05;;;7.10;99.90;;;;;;5053375;28;20536;-70
2023/10/16 07:14:55;;;;;;;14.35;6.45;;;7.10;99.90;;;;;;5053863;28;20037;-70
2023/10/16 07:17:24;;;;;;;15.50;7.72;;;7.10;99.90;;;;;;5051280;28;20144;-70
2023/10/16 07:19:59;;;;;;;10.75;7.32;;;7.20;99.90;;;;;;5043424;28;20394;-69
2023/10/16 07:22:32;;;;;;;14.43;7.55;;;7.20;99.90;;;;;;5013619;28;20029;-69
2023/10/16 07:25:23;;;;;;;14.70;7.97;;;7.20;99.90;;;;;;5050595;28;20060;-69
2023/10/16 07:27:47;;;;;;;11.20;7.68;;;7.30;99.90;;;;;;5050539;28;20089;-68
2023/10/16 07:30:23;;;;;;;15.23;8.35;;;7.30;99.90;;;;;;5045952;28;20116;-69
2023/10/16 07:32:49;;;;;;;11.25;7.15;;;7.40;99.90;;;;;;5043618;28;20531;-69
2023/10/16 07:35:18;;;;;;;15.07;8.43;;;7.40;99.90;;;;;;5052457;28;20091;-69
2023/10/16 07:37:49;;;;;;;14.02;7.60;;;7.50;99.90;;;;;;5046495;28;20105;-69
2023/10/16 07:40:20;;;;;;;14.80;7.63;;;7.60;99.90;;;;;;5040766;28;20508;-68
2023/10/16 07:42:46;;;;;;;12.48;7.65;;;7.60;99.90;;;;;;5027676;28;20025;-69
2023/10/16 07:45:12;;;;;;;12.48;7.85;;;7.70;99.90;;;;;;5047586;28;20039;-68
2023/10/16 07:47:38;;;;;;;15.77;7.50;;;7.80;99.90;;;;;;5042908;28;20136;-70
2023/10/16 07:50:05;;;;;;;11.10;7.72;;;7.90;99.90;;;;;;5043586;28;20074;-72
2023/10/16 07:52:34;;;;;;;17.15;8.07;;;8.00;99.90;;;;;;5042519;28;20529;-70
2023/10/16 07:55:02;;;;;;;14.82;7.75;;;8.10;99.90;;;;;;5044757;28;20057;-70
2023/10/16 07:57:28;;;;;;;13.65;7.30;;;8.20;99.90;;;;;;5046070;28;20021;-70
2023/10/16 07:59:54;;;;;;;13.25;7.72;;;8.30;99.90;;;;;;5047235;28;20098;-69
2023/10/16 08:02:20;;;;;;;12.73;6.93;;;8.30;99.90;;;;;;5037769;28;20039;-70
2023/10/16 08:04:51;;;;;;;9.90;6.80;;;8.40;99.90;;;;;;5044018;28;20029;-69
2023/10/16 08:07:18;;;;;;;9.88;7.25;;;8.50;99.90;;;;;;5042000;28;20515;-69
2023/10/16 08:12:20;;;;;;;11.27;6.53;;;8.60;99.90;;;;;;5047260;28;20031;-69
2023/10/16 08:14:46;;;;;;;11.75;6.85;;;8.80;99.90;;;;;;5045788;28;20037;-70
2023/10/16 08:17:15;;;;;;;12.13;6.72;;;8.90;99.90;;;;;;5049242;28;20044;-70
2023/10/16 08:19:42;;;;;;;10.85;6.63;;;9.00;99.90;;;;;;5042466;28;20032;-70
2023/10/16 08:22:07;;;;;;;14.32;6.30;;;9.10;99.90;;;;;;5047935;28;20017;-70
2023/10/16 08:24:34;;;;;;;12.20;6.80;;;9.20;99.90;;;;;;5043024;28;20495;-70
2023/10/16 08:27:19;;;;;;;9.05;5.05;;;9.20;99.90;;;;;;5046291;28;20014;-70
2023/10/16 08:29:54;;;;;;;13.45;6.35;;;9.30;99.90;;;;;;5024937;28;20032;-70
2023/10/16 08:35:17;;;;;;;8.55;5.80;;;9.50;99.90;;;;;;5047838;28;20412;-70
2023/10/16 08:37:58;;;;;;;8.98;6.25;;;9.60;99.90;;;;;;5050023;28;20021;-70
2023/10/16 08:40:34;;;;;;;9.30;5.55;;;9.60;99.90;;;;;;5038752;28;20619;-70
2023/10/16 08:43:01;;;;;;;10.40;5.68;;;9.80;99.90;;;;;;5045924;28;20417;-70
2023/10/16 08:45:32;;;;;;;6.10;4.40;;;9.90;99.90;;;;;;5050162;28;20028;-70
2023/10/16 08:47:59;;;;;;;7.40;4.38;;;10.00;99.90;;;;;;5047341;28;20044;-70
2023/10/16 08:50:52;;;;;;;8.30;4.30;;;10.10;99.90;;;;;;5051299;28;20040;-70
2023/10/16 08:56:03;;;;;;;7.60;4.05;;;10.30;99.90;;;;;;5052055;28;20040;-70
2023/10/16 08:58:55;;;;;;;8.80;3.60;;;10.40;99.90;;;;;;5048977;28;20029;-68
2023/10/16 09:01:23;;;;;;;6.20;3.63;;;10.50;99.90;;;;;;5047507;28;20037;-68
2023/10/16 09:03:54;;;;;;;5.15;2.88;;;10.40;99.90;;;;;;5052502;28;20094;-70
2023/10/16 09:06:23;;;;;;;8.57;3.63;;;10.50;99.90;;;;;;5052362;28;20025;-69
2023/10/16 09:08:50;;;;;;;7.18;4.00;;;10.50;99.90;;;;;;5050673;28;20036;-70
2023/10/16 09:11:16;;;;;;;7.22;3.47;;;10.60;99.90;;;;;;5051147;28;20040;-70
2023/10/16 09:13:49;;;;;;;5.53;3.40;;;10.70;99.90;;;;;;5048154;28;20049;-69
2023/10/16 09:16:15;;;;;;;;;;;10.70;99.90;;;;;;5047786;28;20025;-70
2023/10/16 09:18:41;;;;;;;7.25;3.10;;;10.80;99.90;;;;;;5047611;28;20351;-70
2023/10/16 09:21:27;;;;;;;6.10;2.38;;;10.90;99.90;;;;;;5045694;28;20064;-69
2023/10/16 09:23:58;;;;;;;5.93;2.75;;;11.00;99.90;;;;;;5048240;28;20393;-70
2023/10/16 09:26:28;;;;;;;8.80;2.55;;;11.10;99.90;;;;;;5048450;28;20049;-68
2023/10/16 09:29:14;;;;;;;4.88;2.00;;;11.20;99.90;;;;;;5041271;28;20032;-68
2023/10/16 09:31:44;;;;;;;5.28;2.70;;;11.30;99.90;;;;;;5046202;28;20021;-68
2023/10/16 09:34:13;;;;;;;6.63;2.35;;;11.30;99.90;;;;;;5046839;28;20033;-68
2023/10/16 09:36:39;;;;;;;5.55;2.17;;;11.30;99.90;;;;;;5045729;28;20056;-68
2023/10/16 09:39:16;;;;;;;5.25;2.08;;;11.30;99.90;;;;;;5049467;28;20037;-68
2023/10/16 09:41:43;;;;;;;5.53;1.70;;;11.40;99.90;;;;;;5044112;28;20021;-68
2023/10/16 09:49:14;;;;;;;6.32;2.05;;;11.50;99.90;;;;;;5040993;28;20034;-70
2023/10/16 09:51:40;;;;;;;8.20;2.10;;;11.60;99.90;;;;;;5020910;28;20473;-70
2023/10/16 09:54:09;;;;;;;6.60;2.10;;;11.80;99.90;;;;;;5041890;28;20039;-70
2023/10/16 09:56:39;;;;;;;6.43;2.15;;;11.90;99.90;;;;;;5041287;28;20040;-70
2023/10/16 09:59:12;;;;;;;5.25;1.80;;;12.10;99.90;;;;;;5044125;28;20028;-70
2023/10/16 10:01:42;;;;;;;6.53;1.60;;;12.30;99.90;;;;;;5048846;28;20024;-69
2023/10/16 10:04:11;;;;;;;5.15;1.92;;;12.30;99.90;;;;;;5046852;28;20043;-70
2023/10/16 10:06:39;;;;;;;3.95;1.70;;;12.40;99.90;;;;;;5045963;28;20029;-70
2023/10/16 10:12:13;;;;;;;4.30;1.83;;;12.40;99.90;;;;;;5046014;28;20017;-67
2023/10/16 10:14:46;;;;;;;;;;;12.50;99.90;;;;;;5048762;28;20037;-70
2023/10/16 10:17:19;;;;;;;4.18;1.20;;;12.40;99.90;;;;;;5049228;28;19915;-70
2023/10/16 10:19:54;;;;;;;1.92;0.90;;;12.50;99.90;;;;;;5056081;28;20021;-69
2023/10/16 10:22:27;;;;;;;4.13;0.88;;;12.60;99.90;;;;;;5058300;28;20028;-70
2023/10/16 10:25:09;;;;;;;;;;;12.60;99.90;;;;;;5056246;28;20104;-70
2023/10/16 10:27:42;;;;;;;5.50;0.75;;;12.60;99.90;;;;;;5051151;28;19917;-70
2023/10/16 10:30:33;;;;;;;3.63;0.90;;;12.70;99.90;;;;;;5052694;28;20040;-69
2023/10/16 10:32:59;;;;;;;3.38;0.70;;;12.80;99.90;;;;;;5051030;28;20047;-70
2023/10/16 10:35:30;;;;;;;3.85;0.60;;;12.80;99.90;;;;;;5053668;28;20528;-70
2023/10/16 10:38:21;;;;;;;5.03;0.60;;;12.90;99.90;;;;;;5054743;28;20078;-69
2023/10/16 10:41:08;;;;;;;7.95;0.82;;;12.90;99.90;;;;;;5040571;28;20025;-70
2023/10/16 10:43:48;;;;;;;4.78;0.90;;;12.90;99.90;;;;;;5046929;28;20585;-70
2023/10/16 10:46:26;;;;;;;2.38;0.55;;;12.90;99.90;;;;;;5054249;28;20151;-69
2023/10/16 10:48:56;;;;;;;2.95;0.63;;;13.00;99.90;;;;;;5047951;28;20029;-69
2023/10/16 10:51:22;;;;;;;4.13;0.70;;;13.10;99.90;;;;;;5049212;28;20040;-70
2023/10/16 10:53:59;;;;;;;6.32;0.90;;;13.20;99.90;;;;;;5037753;28;20042;-69
2023/10/16 10:56:53;;;;;;;2.55;0.65;;;13.40;99.90;;;;;;5039633;28;20442;-70
2023/10/16 10:59:41;;;;;;;5.32;0.88;;;13.60;99.90;;;;;;5046288;28;20513;-69
2023/10/16 11:04:46;;;;;;;6.00;0.60;;;13.70;99.90;;;;;;5044961;28;20029;-70
2023/10/16 11:07:25;;;;;;;3.58;0.50;;;13.60;99.90;;;;;;5046175;28;20027;-69
2023/10/16 11:09:56;;;;;;;3.22;0.40;;;13.60;99.90;;;;;;5045509;28;20029;-69
2023/10/16 11:12:26;;;;;;;7.18;0.45;;;13.60;99.90;;;;;;5043672;28;20148;-68
2023/10/16 11:14:53;;;;;;;1.20;0.22;;;13.70;99.90;;;;;;5046455;28;20111;-69
2023/10/16 11:17:35;;;;;;;1.85;0.20;;;13.70;99.90;;;;;;5049893;28;20113;-68
2023/10/16 11:22:43;;;;;;;1.30;0.20;;;13.80;99.90;;;;;;5047352;28;20361;-67
2023/10/16 11:25:12;;;;;;;1.85;0.20;;;13.90;99.90;;;;;;5037866;28;20036;-67
2023/10/16 11:27:41;;;;;;;3.50;0.50;;;14.00;99.90;;;;;;5050358;28;20052;-67
2023/10/16 11:30:15;;;;;;;2.25;0.28;;;14.00;99.90;;;;;;5051279;28;20049;-67
2023/10/16 11:32:45;;;;;;;2.72;0.20;;;14.00;99.90;;;;;;5049050;28;20048;-68
2023/10/16 11:35:18;;;;;;;1.52;0.20;;;14.00;99.90;;;;;;5049645;28;20072;-69
2023/10/16 11:37:52;;;;;;;2.25;0.20;;;14.00;99.90;;;;;;5052666;28;20032;-69
2023/10/16 11:43:02;;;;;;;1.98;0.30;;;13.90;99.90;;;;;;5046277;28;20036;-68
2023/10/16 11:45:32;;;;;;;3.50;0.30;;;13.90;99.90;;;;;;5048220;28;20040;-68
2023/10/16 11:48:21;;;;;;;2.72;0.20;;;13.80;99.90;;;;;;5053123;28;20029;-68
2023/10/16 11:50:50;;;;;;;2.53;0.28;;;13.90;99.90;;;;;;5049476;28;20545;-68
2023/10/16 11:53:23;;;;;;;5.15;0.25;;;13.90;99.90;;;;;;5053493;28;20649;-68
2023/10/16 11:55:50;;;;;;;1.27;0.30;;;14.00;99.90;;;;;;5040198;28;20033;-68
2023/10/16 11:58:16;;;;;;;1.83;0.20;;;14.00;99.90;;;;;;5048476;28;20465;-68
2023/10/16 12:01:08;;;;;;;2.75;0.20;;;13.90;99.90;;;;;;5050523;28;20033;-68
2023/10/16 12:03:37;;;;;;;3.42;0.30;;;14.10;99.90;;;;;;5043032;28;20485;-68
2023/10/16 12:06:08;;;;;;;3.75;0.30;;;14.10;99.90;;;;;;5048233;28;20040;-68
2023/10/16 12:08:35;;;;;;;2.45;0.25;;;14.10;99.90;;;;;;5049889;28;20404;-68
2023/10/16 12:11:01;;;;;;;3.55;0.50;;;14.20;99.90;;;;;;5048902;28;20028;-68
2023/10/16 12:13:30;;;;;;;4.55;0.30;;;14.30;99.90;;;;;;5024479;28;20018;-68
2023/10/16 12:15:57;;;;;;;2.35;0.30;;;14.30;99.90;;;;;;5039258;28;20218;-68
2023/10/16 12:18:26;;;;;;;3.33;0.22;;;14.40;99.90;;;;;;5042011;28;20044;-68
2023/10/16 12:20:52;;;;;;;1.67;0.28;;;14.50;99.90;;;;;;5041058;28;20067;-68
2023/10/16 12:23:20;;;;;;;2.88;0.35;;;14.50;99.90;;;;;;5048565;28;20079;-69
2023/10/16 12:25:49;;;;;;;2.85;0.22;;;14.50;99.90;;;;;;5048813;28;20036;-68
2023/10/16 12:28:15;;;;;;;3.30;0.50;;;14.50;99.90;;;;;;5043205;28;20036;-69
2023/10/16 12:30:40;;;;;;;4.00;0.40;;;14.50;99.90;;;;;;5046390;28;20037;-68
2023/10/16 12:33:06;;;;;;;3.58;0.28;;;14.50;99.90;;;;;;5052151;28;20021;-69
2023/10/16 12:35:34;;;;;;;1.38;0.20;;;14.50;99.90;;;;;;5052559;28;20045;-68
2023/10/16 12:38:04;;;;;;;2.38;0.20;;;14.50;99.90;;;;;;5051154;28;20064;-68
2023/10/16 12:40:39;;;;;;;3.25;0.30;;;14.60;99.90;;;;;;5052144;28;20021;-68
2023/10/16 12:43:08;;;;;;;1.95;0.50;;;14.60;99.90;;;;;;5050605;28;20067;-68
2023/10/16 12:45:34;;;;;;;1.55;0.20;;;14.70;99.90;;;;;;5042856;28;20048;-68
2023/10/16 12:47:59;;;;;;;2.35;0.17;;;14.70;99.90;;;;;;5050306;28;20105;-69
2023/10/16 12:50:27;;;;;;;1.13;0.20;;;14.70;99.90;;;;;;5043639;28;20156;-69
2023/10/16 12:52:57;;;;;;;2.75;0.30;;;14.80;99.90;;;;;;5046339;28;20032;-69
2023/10/16 12:55:23;;;;;;;2.35;0.28;;;14.80;99.90;;;;;;5051498;28;20029;-69
2023/10/16 12:57:53;;;;;;;2.60;0.20;;;14.80;99.90;;;;;;5050913;28;20029;-69
2023/10/16 13:00:20;;;;;;;1.60;0.20;;;14.80;99.90;;;;;;5045220;28;20032;-68
2023/10/16 13:02:48;;;;;;;4.00;0.20;;;14.80;99.90;;;;;;5052225;28;20472;-69
2023/10/16 13:05:15;;;;;;;0.90;0.15;;;14.80;99.90;;;;;;5049981;28;20029;-69
2023/10/16 13:07:44;;;;;;;6.32;0.30;;;14.80;99.90;;;;;;5051740;28;20432;-69
2023/10/16 13:10:14;;;;;;;1.77;0.13;;;14.80;99.90;;;;;;5045920;28;20025;-69
2023/10/16 13:12:41;;;;;;;3.08;0.20;;;14.80;99.90;;;;;;5030578;28;20718;-69
2023/10/16 13:15:09;;;;;;;3.22;0.45;;;14.90;99.90;;;;;;5041037;28;20128;-69
2023/10/16 13:17:35;;;;;;;3.47;0.40;;;15.00;99.90;;;;;;5042544;28;20060;-69
2023/10/16 13:20:01;;;;;;;1.70;0.20;;;15.00;99.90;;;;;;5042343;28;20143;-69
2023/10/16 13:22:26;;;;;;;1.40;0.20;;;14.90;99.90;;;;;;5046596;28;20449;-69
2023/10/16 13:24:54;;;;;;;2.92;0.30;;;14.90;99.90;;;;;;5020880;28;20079;-69
2023/10/16 13:27:21;;;;;;;3.42;0.20;;;14.80;99.90;;;;;;5036297;28;20112;-69
2023/10/16 13:29:47;;;;;;;1.13;0.13;;;14.80;99.90;;;;;;5035003;28;20025;-69
2023/10/16 13:32:13;;;;;;;0.45;0.10;;;14.70;99.90;;;;;;5051119;28;20366;-69
2023/10/16 13:34:39;;;;;;;0.73;0.20;;;14.60;99.90;;;;;;5043607;28;20128;-69
2023/10/16 13:37:11;;;;;;;5.68;0.20;;;14.50;99.90;;;;;;5048166;28;20044;-69
2023/10/16 13:39:39;;;;;;;6.45;0.90;;;14.50;99.90;;;;;;5046450;28;20033;-69
2023/10/16 13:42:08;;;;;;;2.10;0.20;;;14.40;99.90;;;;;;5047316;28;20025;-68
2023/10/16 13:44:35;;;;;;;1.08;0.10;;;14.30;99.90;;;;;;5043350;28;20032;-68
2023/10/16 13:47:05;;;;;;;2.05;0.10;;;14.10;99.90;;;;;;5032176;28;20025;-68
2023/10/16 13:49:31;;;;;;;3.42;0.10;;;14.00;99.90;;;;;;5037819;28;20457;-68
2023/10/16 13:51:58;;;;;;;9.88;0.50;;;13.90;99.90;;;;;;5040894;28;20047;-68
2023/10/16 13:54:24;;;;;;;1.40;0.20;;;13.90;99.90;;;;;;5034800;28;20071;-68
2023/10/16 13:56:50;;;;;;;0.75;0.10;;;13.90;99.90;;;;;;5027256;28;20021;-68
2023/10/16 13:59:20;;;;;;;1.55;0.10;;;13.80;99.90;;;;;;5031963;28;20029;-68
2023/10/16 14:01:46;;;;;;;5.72;0.45;;;13.80;99.90;;;;;;5038393;28;20023;-69
2023/10/16 14:04:16;;;;;;;2.03;0.20;;;13.70;99.90;;;;;;5048223;28;20130;-69
2023/10/16 14:06:51;;;;;;;2.35;0.10;;;13.70;99.90;;;;;;5042935;28;20542;-68
2023/10/16 14:09:32;;;;;;;4.35;0.20;;;13.70;99.90;;;;;;5040041;28;20521;-68
2023/10/16 14:11:59;;;;;;;1.40;0.10;;;13.70;99.90;;;;;;5040194;28;20048;-68
2023/10/16 14:14:32;;;;;;;2.65;0.10;;;13.70;99.90;;;;;;5047937;28;20040;-69
2023/10/16 14:17:16;;;;;;;1.42;0.10;;;13.70;99.90;;;;;;5045446;28;20037;-68
2023/10/16 14:19:47;;;;;;;1.73;0.20;;;13.70;99.90;;;;;;5043015;28;20064;-68
2023/10/16 14:22:15;;;;;;;2.30;0.20;;;13.60;99.90;;;;;;5044085;28;20389;-69
2023/10/16 14:24:44;;;;;;;1.63;0.20;;;13.70;99.90;;;;;;5046468;28;20074;-68
2023/10/16 14:27:18;;;;;;;1.55;0.10;;;13.70;99.90;;;;;;5035984;28;20030;-68
2023/10/16 14:29:45;;;;;;;3.00;0.20;;;13.70;99.90;;;;;;5042452;28;20026;-68
2023/10/16 14:32:11;;;;;;;2.42;0.20;;;13.70;99.90;;;;;;5036763;28;20048;-68
2023/10/16 14:34:36;;;;;;;1.50;0.13;;;13.80;99.90;;;;;;5038648;28;20443;-68
2023/10/16 14:37:05;;;;;;;1.80;0.13;;;13.70;99.90;;;;;;5035582;28;20103;-68
2023/10/16 14:39:31;;;;;;;1.05;0.10;;;13.80;99.90;;;;;;5040354;28;20022;-68
2023/10/16 14:42:01;;;;;;;1.30;0.10;;;13.80;99.90;;;;;;5039109;28;20064;-68
2023/10/16 14:44:27;;;;;;;2.60;0.20;;;13.90;99.90;;;;;;5032932;28;20112;-68
2023/10/16 14:46:56;;;;;;;4.40;0.50;;;13.80;99.90;;;;;;5032825;28;20104;-68
2023/10/16 14:49:25;;;;;;;7.13;0.50;;;13.90;99.90;;;;;;5035594;28;20039;-69
2023/10/16 14:51:51;;;;;;;4.75;0.77;;;13.90;99.90;;;;;;5042477;28;20057;-68
2023/10/16 14:54:17;;;;;;;3.22;0.40;;;13.80;99.90;;;;;;5036576;28;20114;-68
2023/10/16 14:56:44;;;;;;;8.63;0.30;;;13.80;99.90;;;;;;5041122;28;20481;-68